Time;durP1;ratioP1;P1;durP2;ratioP2;P2;SDS_P1;SDS_P2;PMS_P1;PMS_P2;Temp;Humidity;BMP_temperature;BMP_pressure;BME280_temperature;BME280_humidity;BME280_pressure;Samples;Min_cycle;Max_cycle;Signal;HPM_P1;HPM_P2
2022/04/10 00:06:04;;;;;;;;;;;4.50;95.60;;;;;;6211804;23;19911;-89
2022/04/10 00:08:29;;;;;;;;;;;4.50;95.60;;;;;;6183391;23;19920;-90
2022/04/10 00:14:11;;;;;;;;;;;4.50;95.60;;;;;;6250021;23;20254;-89
2022/04/10 00:19:49;;;;;;;;;;;4.50;95.60;;;;;;6249783;23;19946;-88
2022/04/10 00:28:24;;;;;;;;;;;4.40;95.60;;;;;;6249839;22;19908;-89
2022/04/10 00:30:50;;;;;;;;;;;4.30;95.60;;;;;;6222593;23;19943;-90
2022/04/10 00:33:15;;;;;;;;;;;4.30;95.60;;;;;;6222987;23;19907;-92
2022/04/10 00:35:46;;;;;;;;;;;4.30;95.60;;;;;;6223236;23;19907;-89
2022/04/10 00:38:16;;;;;;;;;;;4.30;95.60;;;;;;6223548;23;19988;-91
2022/04/10 00:44:18;;;;;;;;;;;4.30;95.60;;;;;;6127656;23;19916;-89
2022/04/10 01:18:16;;;;;;;;;;;3.90;96.00;;;;;;6128037;23;19928;-90
2022/04/10 01:23:50;;;;;;;;;;;3.90;96.00;;;;;;6251247;23;19930;-90
2022/04/10 01:41:50;;;;;;;;;;;3.80;96.20;;;;;;6248668;23;19910;-89
2022/04/10 01:50:53;;;;;;;;;;;3.70;96.20;;;;;;6247512;23;19912;-91
2022/04/10 02:19:48;;;;;;;;;;;3.50;96.60;;;;;;6317798;22;20353;-90
2022/04/10 02:28:56;;;;;;;;;;;3.50;96.60;;;;;;6256619;22;19920;-91
2022/04/10 02:31:32;;;;;;;;;;;;;;;;;;;;;
2022/04/10 02:34:00;;;;;;;;;;;3.40;96.70;;;;;;6252462;23;19991;-91
2022/04/10 02:36:26;;;;;;;;;;;3.40;96.70;;;;;;6227051;23;19903;-91
2022/04/10 02:38:54;;;;;;;;;;;3.40;96.70;;;;;;6225718;23;20229;-90
2022/04/10 02:41:20;;;;;;;;;;;3.40;96.70;;;;;;6225964;23;19942;-90
2022/04/10 02:43:48;;;;;;;;;;;3.40;96.70;;;;;;6225636;23;19915;-90
2022/04/10 02:46:29;;;;;;;;;;;3.40;96.70;;;;;;6225228;23;19935;-90
2022/04/10 02:49:06;;;;;;;;;;;3.30;96.70;;;;;;6226378;23;19952;-90
2022/04/10 02:51:47;;;;;;;;;;;3.30;96.70;;;;;;6226221;23;19914;-92
2022/04/10 02:54:16;;;;;;;;;;;3.30;97.00;;;;;;6223727;22;19899;-89
2022/04/10 02:56:45;;;;;;;;;;;3.30;96.80;;;;;;6250309;22;19919;-91
2022/04/10 02:59:15;;;;;;;;;;;3.30;96.90;;;;;;6243458;23;19908;-90
2022/04/10 03:01:50;;;;;;;;;;;3.30;96.90;;;;;;6206475;23;19912;-94
2022/04/10 03:04:42;;;;;;;;;;;3.30;96.90;;;;;;6200785;23;19919;-91
2022/04/10 03:07:08;;;;;;;;;;;3.30;96.90;;;;;;6213233;23;19937;-91
2022/04/10 03:09:33;;;;;;;;;;;3.40;96.90;;;;;;6224733;23;19903;-91
2022/04/10 03:12:14;;;;;;;;;;;3.40;97.00;;;;;;6251255;23;19931;-92
2022/04/10 03:14:49;;;;;;;;;;;3.40;97.00;;;;;;6225013;23;19950;-91
2022/04/10 03:17:23;;;;;;;;;;;3.40;97.00;;;;;;6224787;23;19989;-91
2022/04/10 03:19:54;;;;;;;;;;;3.30;97.00;;;;;;6226112;22;19904;-91
2022/04/10 03:22:28;;;;;;;;;;;3.30;97.00;;;;;;6230223;22;19914;-90
2022/04/10 03:28:02;;;;;;;;;;;3.30;97.10;;;;;;6265338;22;19910;-91
2022/04/10 03:30:40;;;;;;;;;;;3.30;97.10;;;;;;6255422;22;19908;-90
2022/04/10 03:33:11;;;;;;;;;;;3.30;97.10;;;;;;6255487;22;20233;-90
2022/04/10 03:36:05;;;;;;;;;;;;;;;;;;;;;
2022/04/10 03:38:45;;;;;;;;;;;3.30;97.10;;;;;;6282036;22;19989;-91
2022/04/10 03:41:19;;;;;;;;;;;3.40;97.10;;;;;;6251692;22;19907;-90
2022/04/10 03:43:44;;;;;;;;;;;3.30;97.10;;;;;;6231484;22;19913;-92
2022/04/10 03:46:10;;;;;;;;;;;3.30;97.10;;;;;;6255501;22;19929;-90
2022/04/10 03:48:41;;;;;;;;;;;3.30;97.10;;;;;;6256157;22;19903;-90
2022/04/10 03:51:12;;;;;;;;;;;3.30;97.10;;;;;;6255858;22;19930;-90
2022/04/10 03:53:47;;;;;;;;;;;3.30;97.10;;;;;;6230049;22;19953;-90
2022/04/10 03:56:15;;;;;;;;;;;3.30;97.10;;;;;;6230453;22;19914;-90
2022/04/10 03:58:58;;;;;;;;;;;3.30;97.00;;;;;;6254316;22;19907;-90
2022/04/10 04:01:27;;;;;;;;;;;3.30;97.00;;;;;;6254228;22;19971;-92
2022/04/10 04:03:57;;;;;;;;;;;3.30;97.00;;;;;;6254925;22;19907;-91
2022/04/10 04:06:26;;;;;;;;;;;3.20;97.00;;;;;;6254605;22;19978;-91
2022/04/10 04:08:56;;;;;;;;;;;3.20;97.00;;;;;;6255600;22;19923;-91
2022/04/10 04:11:24;;;;;;;;;;;3.10;97.00;;;;;;6262353;22;19961;-90
2022/04/10 04:13:54;;;;;;;;;;;3.10;97.00;;;;;;6267614;22;19947;-91
2022/04/10 04:16:26;;;;;;;;;;;3.10;97.00;;;;;;6304420;22;19954;-91
2022/04/10 04:18:56;;;;;;;;;;;3.00;97.00;;;;;;6306714;22;19958;-90
2022/04/10 04:21:30;;;;;;;;;;;2.90;97.00;;;;;;6248644;22;19924;-92
2022/04/10 04:24:03;;;;;;;;;;;2.80;97.00;;;;;;6239196;22;19911;-92
2022/04/10 04:26:54;;;;;;;;;;;2.90;97.00;;;;;;6254771;22;19914;-91
2022/04/10 04:29:25;;;;;;;;;;;2.80;97.00;;;;;;6254960;22;19909;-91
2022/04/10 04:31:50;;;;;;;;;;;2.80;97.10;;;;;;6254634;22;19965;-90
2022/04/10 04:34:23;;;;;;;;;;;2.80;97.20;;;;;;6254957;22;19903;-92
2022/04/10 04:36:57;;;;;;;;;;;2.80;97.20;;;;;;6254175;22;19904;-90
2022/04/10 04:39:27;;;;;;;;;;;2.90;97.30;;;;;;6254825;22;19986;-91
2022/04/10 04:41:55;;;;;;;;;;;2.90;97.30;;;;;;6254594;22;20146;-92
2022/04/10 04:44:24;;;;;;;;;;;2.90;97.30;;;;;;6254560;22;19918;-89
2022/04/10 04:46:56;;;;;;;;;;;2.90;97.30;;;;;;6258503;22;19982;-90
2022/04/10 04:49:24;;;;;;;;;;;2.90;97.30;;;;;;6261124;22;19909;-91
2022/04/10 04:51:53;;;;;;;;;;;2.80;97.30;;;;;;6260056;22;19904;-91
2022/04/10 04:54:19;;;;;;;;;;;2.80;97.30;;;;;;6263466;22;19926;-91
2022/04/10 04:56:50;;;;;;;;;;;2.80;97.30;;;;;;6235825;22;20309;-90
2022/04/10 04:59:18;;;;;;;;;;;2.70;97.30;;;;;;6238982;22;19921;-93
2022/04/10 05:01:46;;;;;;;;;;;2.70;97.30;;;;;;6263972;22;19910;-94
2022/04/10 05:04:14;;;;;;;;;;;2.70;97.60;;;;;;6264276;22;19957;-93
2022/04/10 05:06:42;;;;;;;;;;;2.70;97.30;;;;;;6241473;22;19918;-92
2022/04/10 05:09:08;;;;;;;;;;;2.60;97.30;;;;;;6297138;22;19904;-92
2022/04/10 05:11:44;;;;;;;;;;;;;;;;;;;;;
2022/04/10 05:14:10;;;;;;;;;;;2.60;97.30;;;;;;6302043;22;19903;-91
2022/04/10 05:16:43;;;;;;;;;;;2.60;97.40;;;;;;6302789;22;19907;-90
2022/04/10 05:19:14;;;;;;;;;;;2.50;97.40;;;;;;6254566;22;19895;-91
2022/04/10 05:21:49;;;;;;;;;;;2.50;97.40;;;;;;6303201;22;19926;-93
2022/04/10 05:24:20;;;;;;;;;;;2.50;97.40;;;;;;6272308;22;19959;-92
2022/04/10 05:26:51;;;;;;;;;;;2.50;97.40;;;;;;6245161;22;19911;-91
2022/04/10 05:29:22;;;;;;;;;;;2.50;97.50;;;;;;6267989;22;19903;-94
2022/04/10 05:31:52;;;;;;;;;;;2.50;97.50;;;;;;6295031;22;19910;-92
2022/04/10 05:34:26;;;;;;;;;;;2.50;97.50;;;;;;6245510;22;19908;-92
2022/04/10 05:36:59;;;;;;;;;;;2.50;97.60;;;;;;6272198;22;19930;-92
2022/04/10 05:42:15;;;;;;;;;;;2.50;97.60;;;;;;6299542;22;19907;-93
2022/04/10 05:44:41;;;;;;;;;;;2.60;97.70;;;;;;6267796;22;19912;-93
2022/04/10 05:47:20;;;;;;;;;;;;;;;;;;;;;
2022/04/10 05:49:46;;;;;;;;;;;2.60;97.70;;;;;;6289084;22;19934;-92
2022/04/10 05:52:14;;;;;;;;;;;2.60;97.80;;;;;;6263604;22;19908;-93
2022/04/10 05:55:05;;;;;;;;;;;2.70;97.80;;;;;;6260740;22;19943;-93
2022/04/10 05:57:53;;;;;;;;;;;;;;;;;;;;;
2022/04/10 06:00:45;;;;;;;;;;;2.80;97.80;;;;;;6290149;22;19934;-93
2022/04/10 06:03:29;;;;;;;;;;;2.80;97.80;;;;;;6288977;22;19915;-93
2022/04/10 06:08:59;;;;;;;;;;;2.90;97.80;;;;;;6289440;22;19927;-92
2022/04/10 06:11:34;;;;;;;;;;;;;;;;;;;;;
2022/04/10 06:17:29;;;;;;;;;;;;;;;;;;;;;
2022/04/10 06:20:08;;;;;;;;;;;;;;;;;;;;;
2022/04/10 06:22:47;;;;;;;;;;;;;;;;;;;;;
2022/04/10 06:25:23;;;;;;;;;;;3.40;97.70;;;;;;6215571;22;20279;-95
2022/04/10 06:31:00;;;;;;;;;;;3.60;97.70;;;;;;6280070;22;19904;-91
2022/04/10 06:34:09;;;;;;;;;;;;;;;;;;;;;
2022/04/10 06:37:17;;;;;;;;;;;;;;;;;;;;;
2022/04/10 06:55:24;;;;;;;;;;;4.30;97.60;;;;;;5965306;24;19917;-93
2022/04/10 07:01:22;;;;;;;;;;;;;;;;;;;;;
2022/04/10 07:04:11;;;;;;;;;;;4.80;97.50;;;;;;6232797;22;19907;-93
2022/04/10 07:07:02;;;;;;;;;;;4.90;97.40;;;;;;6279793;22;19907;-94
2022/04/10 07:10:02;;;;;;;;;;;;;;;;;;;;;
2022/04/10 07:12:47;;;;;;;;;;;5.10;97.30;;;;;;6295672;22;19910;-93
2022/04/10 07:15:43;;;;;;;;;;;5.20;97.20;;;;;;6259964;22;19903;-91
2022/04/10 07:27:13;;;;;;;;;;;;;;;;;;;;;
2022/04/10 07:30:01;;;;;;;;;;;;;;;;;;;;;
2022/04/10 07:33:01;;;;;;;;;;;;;;;;;;;;;
2022/04/10 07:36:18;;;;;;;;;;;;;;;;;;;;;
2022/04/10 08:03:53;;;;;;;;;;;;;;;;;;;;;
2022/04/10 08:06:45;;;;;;;;;;;6.20;96.90;;;;;;5966662;24;19950;-93
2022/04/10 08:19:14;;;;;;;;;;;;;;;;;;;;;
2022/04/10 08:55:33;;;;;;;;;;;7.60;95.30;;;;;;5844430;24;20005;-93
2022/04/10 08:58:11;;;;;;;;;;;7.70;95.10;;;;;;5883853;24;19908;-93
2022/04/10 09:07:22;;;;;;;;;;;;;;;;;;;;;
2022/04/10 09:10:16;;;;;;;;;;;;;;;;;;;;;
2022/04/10 09:13:13;;;;;;;;;;;;;;;;;;;;;
2022/04/10 09:32:37;;;;;;;;;;;8.40;92.30;;;;;;6160126;23;19946;-91
2022/04/10 10:01:14;;;;;;;;;;;;;;;;;;;;;
2022/04/10 10:25:38;;;;;;;;;;;;;;;;;;;;;
2022/04/10 10:38:21;;;;;;;;;;;9.90;87.10;;;;;;6019402;23;19974;-91
2022/04/10 10:50:37;;;;;;;;;;;9.90;83.60;;;;;;5963500;24;19918;-91
2022/04/10 11:17:53;;;;;;;;;;;10.10;79.30;;;;;;5937014;24;19913;-89
2022/04/10 11:20:32;;;;;;;;;;;10.20;78.70;;;;;;5943972;24;19988;-90
2022/04/10 11:23:11;;;;;;;;;;;10.30;78.10;;;;;;6000901;23;19910;-90
2022/04/10 11:32:15;;;;;;;;;;;10.50;78.20;;;;;;6102372;23;19912;-90
2022/04/10 11:45:12;;;;;;;;;;;10.90;80.00;;;;;;5492706;23;13854613;-90
2022/04/10 11:51:28;;;;;;;;;;;11.00;79.40;;;;;;6114068;23;20327;-91
2022/04/10 12:09:42;;;;;;;;;;;11.40;78.50;;;;;;6046613;23;20047;-90
2022/04/10 12:18:33;;;;;;;;;;;11.30;75.50;;;;;;6160817;23;19911;-90
2022/04/10 12:27:27;;;;;;;;;;;11.40;77.00;;;;;;6101892;23;19916;-92
2022/04/10 12:33:18;;;;;;;;;;;;;;;;;;;;;
2022/04/10 12:39:06;;;;;;;;;;;;;;;;;;;;;
2022/04/10 12:42:24;;;;;;;;;;;;;;;;;;;;;
2022/04/10 12:52:40;;;;;;;;;;;;;;;;;;;;;
2022/04/10 13:20:05;;;;;;;;;;;12.30;73.70;;;;;;6162148;23;19913;-89
2022/04/10 13:23:05;;;;;;;;;;;12.20;73.80;;;;;;6182485;23;19899;-88
2022/04/10 13:28:37;;;;;;;;;;;12.30;73.40;;;;;;6276917;22;19903;-90
2022/04/10 13:34:34;;;;;;;;;;;;;;;;;;;;;
2022/04/10 13:43:26;;;;;;;;;;;12.40;72.90;;;;;;6160627;23;19915;-90
2022/04/10 13:52:30;;;;;;;;;;;;;;;;;;;;;
2022/04/10 13:55:00;;;;;;;;;;;12.40;72.00;;;;;;6161123;23;19925;-92
2022/04/10 13:57:48;;;;;;;;;;;12.40;71.70;;;;;;6202352;22;19907;-91
2022/04/10 14:06:46;;;;;;;;;;;;;;;;;;;;;
2022/04/10 14:53:56;;;;;;;;;;;;;;;;;;;;;
2022/04/10 15:07:50;;;;;;;;;;;;;;;;;;;;;
2022/04/10 15:14:35;;;;;;;;;;;12.10;71.20;;;;;;6163698;23;19904;-92
2022/04/10 15:22:58;;;;;;;;;;;;;;;;;;;;;
2022/04/10 15:28:33;;;;;;;;;;;12.00;71.90;;;;;;6048166;23;19949;-92
2022/04/10 15:31:15;;;;;;;;;;;;;;;;;;;;;
2022/04/10 15:36:55;;;;;;;;;;;12.00;70.00;;;;;;6236976;22;19903;-91
2022/04/10 15:39:29;;;;;;;;;;;12.00;70.60;;;;;;6270618;22;19903;-92
2022/04/10 15:42:21;;;;;;;;;;;12.00;71.50;;;;;;6233497;22;19907;-92
2022/04/10 15:45:11;;;;;;;;;;;12.00;71.10;;;;;;6255554;22;19994;-93
2022/04/10 15:48:10;;;;;;;;;;;;;;;;;;;;;
2022/04/10 15:51:15;;;;;;;;;;;11.90;69.70;;;;;;6275106;22;19926;-93
2022/04/10 15:54:03;;;;;;;;;;;11.80;70.40;;;;;;6211734;22;19904;-94
2022/04/10 15:56:31;;;;;;;;;;;11.80;70.60;;;;;;6257087;22;19903;-91
2022/04/10 16:02:08;;;;;;;;;;;11.90;70.60;;;;;;6245761;22;19914;-94
2022/04/10 16:10:25;;;;;;;;;;;12.00;69.80;;;;;;6262921;22;19925;-92
2022/04/10 16:13:01;;;;;;;;;;;12.00;69.90;;;;;;6232302;22;19911;-89
2022/04/10 16:15:47;;;;;;;;;;;12.00;69.90;;;;;;6257266;22;20309;-91
2022/04/10 16:18:30;;;;;;;;;;;12.00;69.90;;;;;;6256278;22;19903;-92
2022/04/10 16:21:26;;;;;;;;;;;;;;;;;;;;;
2022/04/10 16:33:11;;;;;;;;;;;12.10;68.50;;;;;;6121073;22;19913;-91
2022/04/10 16:36:03;;;;;;;;;;;12.10;68.50;;;;;;6250112;22;19911;-93
2022/04/10 16:43:49;;;;;;;;;;;12.10;66.70;;;;;;6274665;22;19909;-90
2022/04/10 16:46:45;;;;;;;;;;;12.10;66.90;;;;;;6253863;22;19930;-93
2022/04/10 16:49:39;;;;;;;;;;;12.00;66.00;;;;;;6198441;23;19932;-89
2022/04/10 17:04:45;;;;;;;;;;;;;;;;;;;;;
2022/04/10 17:07:37;;;;;;;;;;;11.70;66.20;;;;;;6192192;23;19936;-92
2022/04/10 17:13:05;;;;;;;;;;;11.60;66.50;;;;;;6170715;23;19904;-92
2022/04/10 17:16:42;;;;;;;;;;;;;;;;;;;;;
2022/04/10 17:25:43;;;;;;;;;;;;;;;;;;;;;
2022/04/10 18:00:38;;;;;;;;;;;10.80;69.80;;;;;;6163791;23;19912;-91
2022/04/10 18:03:16;;;;;;;;;;;10.70;70.40;;;;;;6188786;23;19904;-91
2022/04/10 18:06:02;;;;;;;;;;;10.60;71.20;;;;;;6192000;23;19908;-92
2022/04/10 18:12:11;;;;;;;;;;;10.50;72.60;;;;;;6290328;22;19910;-92
2022/04/10 18:14:41;;;;;;;;;;;10.40;73.30;;;;;;6262652;22;19903;-91
2022/04/10 18:20:40;;;;;;;;;;;;;;;;;;;;;
2022/04/10 18:24:07;;;;;;;;;;;10.10;74.30;;;;;;6305275;22;19914;-91
2022/04/10 18:26:48;;;;;;;;;;;10.00;74.80;;;;;;6219058;22;19908;-91
2022/04/10 18:29:19;;;;;;;;;;;9.90;75.30;;;;;;6264380;22;20238;-96
2022/04/10 18:32:11;;;;;;;;;;;9.80;75.70;;;;;;6260431;22;19952;-93
2022/04/10 18:35:24;;;;;;;;;;;;;;;;;;;;;
2022/04/10 18:38:11;;;;;;;;;;;9.60;76.50;;;;;;6284253;22;19911;-93
2022/04/10 18:40:52;;;;;;;;;;;;;;;;;;;;;
2022/04/10 18:43:35;;;;;;;;;;;9.40;77.40;;;;;;6269522;22;19934;-94
2022/04/10 18:46:26;;;;;;;;;;;9.40;77.90;;;;;;6264665;22;19931;-96
2022/04/10 18:52:20;;;;;;;;;;;9.20;78.50;;;;;;6294181;22;19910;-92
2022/04/10 18:54:50;;;;;;;;;;;9.10;78.70;;;;;;6239516;22;20002;-92
2022/04/10 19:07:12;;;;;;;;;;;8.70;79.50;;;;;;6294500;22;19903;-94
2022/04/10 19:13:26;;;;;;;;;;;8.60;80.00;;;;;;6297022;22;19914;-94
2022/04/10 19:16:05;;;;;;;;;;;;;;;;;;;;;
2022/04/10 19:18:52;;;;;;;;;;;8.40;80.50;;;;;;6292292;22;19911;-91
2022/04/10 19:21:49;;;;;;;;;;;8.30;80.60;;;;;;6268559;22;19892;-96
2022/04/10 19:24:26;;;;;;;;;;;8.20;80.70;;;;;;6266855;22;20355;-90
2022/04/10 19:27:25;;;;;;;;;;;8.10;81.10;;;;;;6268169;22;19907;-91
2022/04/10 19:33:34;;;;;;;;;;;;;;;;;;;;;
2022/04/10 19:36:46;;;;;;;;;;;;;;;;;;;;;
2022/04/10 19:39:36;;;;;;;;;;;7.90;81.60;;;;;;6138845;23;19929;-91
2022/04/10 19:42:17;;;;;;;;;;;;;;;;;;;;;
2022/04/10 19:45:11;;;;;;;;;;;7.80;81.70;;;;;;6297630;22;19907;-93
2022/04/10 19:47:56;;;;;;;;;;;7.70;81.80;;;;;;6271525;22;19911;-92
2022/04/10 19:53:44;;;;;;;;;;;7.60;82.10;;;;;;6149056;23;19925;-91
2022/04/10 19:56:32;;;;;;;;;;;;;;;;;;;;;
2022/04/10 19:59:41;;;;;;;;;;;;;;;;;;;;;
2022/04/10 20:02:42;;;;;;;;;;;7.40;82.80;;;;;;6259604;23;19947;-92
2022/04/10 20:14:46;;;;;;;;;;;;;;;;;;;;;
2022/04/10 20:17:34;;;;;;;;;;;7.10;84.10;;;;;;6163906;23;19936;-93
2022/04/10 20:20:05;;;;;;;;;;;7.00;84.30;;;;;;6142925;23;19908;-92
2022/04/10 20:22:59;;;;;;;;;;;7.00;84.50;;;;;;6118509;23;19909;-92
2022/04/10 20:25:35;;;;;;;;;;;6.90;84.70;;;;;;6235432;23;19927;-92
2022/04/10 20:34:26;;;;;;;;;;;6.90;85.50;;;;;;6173138;23;19928;-94
2022/04/10 20:37:17;;;;;;;;;;;;;;;;;;;;;
2022/04/10 20:40:22;;;;;;;;;;;;;;;;;;;;;
2022/04/10 20:49:00;;;;;;;;;;;6.70;86.70;;;;;;6053918;23;19910;-94
2022/04/10 20:54:34;;;;;;;;;;;6.70;86.80;;;;;;5968960;24;19949;-92
2022/04/10 20:57:13;;;;;;;;;;;;;;;;;;;;;
2022/04/10 21:02:55;;;;;;;;;;;6.80;86.40;;;;;;6158943;23;19911;-91
2022/04/10 21:28:18;;;;;;;;;;;6.70;87.80;;;;;;5867359;24;19916;-91
2022/04/10 21:34:06;;;;;;;;;;;;;;;;;;;;;
2022/04/10 21:36:42;;;;;;;;;;;6.60;88.40;;;;;;5821451;24;19979;-90
2022/04/10 21:45:34;;;;;;;;;;;6.50;88.90;;;;;;5879124;24;19920;-91
2022/04/10 21:49:08;;;;;;;;;;;6.40;88.90;;;;;;6070746;23;19912;-91
2022/04/10 21:57:30;;;;;;;;;;;6.30;89.40;;;;;;6099364;23;19909;-92
2022/04/10 22:00:19;;;;;;;;;;;6.30;89.60;;;;;;6076236;23;19936;-90
2022/04/10 22:05:38;;;;;;;;;;;6.30;89.80;;;;;;6100281;23;19980;-91
2022/04/10 22:08:23;;;;;;;;;;;;;;;;;;;;;
2022/04/10 22:10:49;;;;;;;;;;;6.20;90.00;;;;;;6099824;23;19987;-92
2022/04/10 22:13:23;;;;;;;;;;;6.20;90.10;;;;;;6074522;23;19936;-89
2022/04/10 22:16:12;;;;;;;;;;;;;;;;;;;;;
2022/04/10 22:19:04;;;;;;;;;;;6.20;90.20;;;;;;6078447;23;20313;-92
2022/04/10 22:21:50;;;;;;;;;;;6.20;90.20;;;;;;6100727;23;19917;-91
2022/04/10 22:27:21;;;;;;;;;;;6.10;90.40;;;;;;6268958;22;19911;-90
2022/04/10 22:30:00;;;;;;;;;;;6.10;90.40;;;;;;6289172;22;19904;-90
2022/04/10 22:32:33;;;;;;;;;;;6.00;90.40;;;;;;6238064;22;19954;-92
2022/04/10 22:35:01;;;;;;;;;;;6.00;90.50;;;;;;6260708;22;19933;-90
2022/04/10 22:38:00;;;;;;;;;;;6.00;90.60;;;;;;6256098;22;19907;-91
2022/04/10 22:43:36;;;;;;;;;;;6.00;90.70;;;;;;6285628;22;19915;-89
2022/04/10 22:46:02;;;;;;;;;;;5.90;90.70;;;;;;6253971;22;19907;-87
2022/04/10 22:48:27;;;;;;;;;;;5.90;90.80;;;;;;6254488;22;19903;-86
2022/04/10 22:50:55;;;;;;;;;;;5.90;90.80;;;;;;6273329;22;19934;-87
2022/04/10 22:53:34;;;;;;;;;;;5.90;90.90;;;;;;6279950;22;19967;-89
2022/04/10 22:56:02;;;;;;;;;;;5.90;91.00;;;;;;6280144;22;19925;-87
2022/04/10 22:58:35;;;;;;;;;;;5.80;91.00;;;;;;6278559;22;19891;-82
2022/04/10 23:01:00;;;;;;;;;;;5.80;91.10;;;;;;6253476;22;19904;-86
2022/04/10 23:03:26;;;;;;;;;;;5.80;91.10;;;;;;6253184;22;19907;-87
2022/04/10 23:06:09;;;;;;;;;;;5.80;91.20;;;;;;6253346;22;19914;-87
2022/04/10 23:08:43;;;;;;;;;;;5.70;91.30;;;;;;6253111;22;19904;-88
2022/04/10 23:11:09;;;;;;;;;;;5.70;91.40;;;;;;6254009;22;19903;-87
2022/04/10 23:13:55;;;;;;;;;;;5.70;91.40;;;;;;6280472;22;19903;-87
2022/04/10 23:16:23;;;;;;;;;;;5.60;91.50;;;;;;6252669;22;19934;-87
2022/04/10 23:18:59;;;;;;;;;;;5.60;91.60;;;;;;6253509;22;19942;-87
2022/04/10 23:21:34;;;;;;;;;;;5.60;91.60;;;;;;6228406;22;19907;-87
2022/04/10 23:24:06;;;;;;;;;;;5.50;91.60;;;;;;6229797;22;19915;-86
2022/04/10 23:26:39;;;;;;;;;;;5.50;91.70;;;;;;6252868;22;19918;-87
2022/04/10 23:29:05;;;;;;;;;;;5.50;91.70;;;;;;6253005;22;19911;-87
2022/04/10 23:31:30;;;;;;;;;;;5.50;91.80;;;;;;6253095;22;19981;-87
2022/04/10 23:34:04;;;;;;;;;;;5.50;91.90;;;;;;6253424;22;20284;-87
2022/04/10 23:36:39;;;;;;;;;;;5.50;91.90;;;;;;6228643;22;19914;-88
2022/04/10 23:39:08;;;;;;;;;;;5.50;91.90;;;;;;6252908;22;19953;-86
2022/04/10 23:41:36;;;;;;;;;;;5.40;92.00;;;;;;6280109;22;20363;-87
2022/04/10 23:44:07;;;;;;;;;;;5.40;92.00;;;;;;6253428;22;19956;-87
2022/04/10 23:46:35;;;;;;;;;;;5.40;92.10;;;;;;6228691;22;19911;-87
2022/04/10 23:49:03;;;;;;;;;;;5.40;92.10;;;;;;6252496;22;19903;-88
2022/04/10 23:51:52;;;;;;;;;;;5.40;92.20;;;;;;6252447;22;19904;-88
2022/04/10 23:54:20;;;;;;;;;;;5.30;92.20;;;;;;6256104;22;19966;-88
2022/04/10 23:56:54;;;;;;;;;;;5.30;92.30;;;;;;6251818;22;20329;-87
2022/04/10 23:59:49;;;;;;;;;;;;;;;;;;;;;
